sensor_id;sensor_type;location;lat;lon;timestamp;P1;durP1;ratioP1;P2;durP2;ratioP2
48317;SDS011;34127;47.412;9.730;2022-09-17T00:01:06;5.97;;;3.05;;
48317;SDS011;34127;47.412;9.730;2022-09-17T00:03:33;5.60;;;2.75;;
48317;SDS011;34127;47.412;9.730;2022-09-17T00:06:07;4.60;;;2.47;;
48317;SDS011;34127;47.412;9.730;2022-09-17T00:08:34;4.95;;;2.75;;
48317;SDS011;34127;47.412;9.730;2022-09-17T00:11:08;7.40;;;3.22;;
48317;SDS011;34127;47.412;9.730;2022-09-17T00:13:34;4.47;;;2.40;;
48317;SDS011;34127;47.412;9.730;2022-09-17T00:16:01;3.58;;;2.17;;
48317;SDS011;34127;47.412;9.730;2022-09-17T00:18:27;4.47;;;2.42;;
48317;SDS011;34127;47.412;9.730;2022-09-17T00:20:53;5.60;;;2.38;;
48317;SDS011;34127;47.412;9.730;2022-09-17T00:23:19;4.68;;;2.45;;
48317;SDS011;34127;47.412;9.730;2022-09-17T00:25:45;4.60;;;2.85;;
48317;SDS011;34127;47.412;9.730;2022-09-17T00:28:12;4.00;;;2.58;;
48317;SDS011;34127;47.412;9.730;2022-09-17T00:30:39;4.00;;;2.20;;
48317;SDS011;34127;47.412;9.730;2022-09-17T00:33:06;5.05;;;2.70;;
48317;SDS011;34127;47.412;9.730;2022-09-17T00:35:32;3.50;;;2.47;;
48317;SDS011;34127;47.412;9.730;2022-09-17T00:37:58;4.22;;;2.30;;
48317;SDS011;34127;47.412;9.730;2022-09-17T00:40:24;6.40;;;2.50;;
48317;SDS011;34127;47.412;9.730;2022-09-17T00:42:50;4.95;;;2.97;;
48317;SDS011;34127;47.412;9.730;2022-09-17T00:45:19;5.10;;;2.72;;
48317;SDS011;34127;47.412;9.730;2022-09-17T00:48:08;6.03;;;2.67;;
48317;SDS011;34127;47.412;9.730;2022-09-17T00:50:37;4.53;;;2.63;;
48317;SDS011;34127;47.412;9.730;2022-09-17T00:53:05;5.25;;;2.80;;
48317;SDS011;34127;47.412;9.730;2022-09-17T00:55:33;4.10;;;2.50;;
48317;SDS011;34127;47.412;9.730;2022-09-17T00:58:01;3.90;;;2.05;;
48317;SDS011;34127;47.412;9.730;2022-09-17T01:00:28;3.30;;;2.22;;
48317;SDS011;34127;47.412;9.730;2022-09-17T01:02:55;4.93;;;2.22;;
48317;SDS011;34127;47.412;9.730;2022-09-17T01:06:07;4.13;;;2.10;;
48317;SDS011;34127;47.412;9.730;2022-09-17T01:08:22;5.18;;;2.30;;
48317;SDS011;34127;47.412;9.730;2022-09-17T01:21:27;3.40;;;1.65;;
48317;SDS011;34127;47.412;9.730;2022-09-17T01:32:08;2.88;;;1.80;;
48317;SDS011;34127;47.412;9.730;2022-09-17T01:37:18;2.72;;;1.50;;
48317;SDS011;34127;47.412;9.730;2022-09-17T01:39:50;2.53;;;1.60;;
48317;SDS011;34127;47.412;9.730;2022-09-17T01:42:24;2.42;;;1.50;;
48317;SDS011;34127;47.412;9.730;2022-09-17T01:45:07;3.10;;;1.60;;
48317;SDS011;34127;47.412;9.730;2022-09-17T01:47:36;6.93;;;1.90;;
48317;SDS011;34127;47.412;9.730;2022-09-17T01:50:04;5.50;;;2.08;;
48317;SDS011;34127;47.412;9.730;2022-09-17T01:52:33;3.78;;;1.80;;
48317;SDS011;34127;47.412;9.730;2022-09-17T01:55:02;4.88;;;2.30;;
48317;SDS011;34127;47.412;9.730;2022-09-17T01:57:41;5.20;;;2.70;;
48317;SDS011;34127;47.412;9.730;2022-09-17T02:00:13;6.68;;;2.92;;
48317;SDS011;34127;47.412;9.730;2022-09-17T02:03:01;8.27;;;3.10;;
48317;SDS011;34127;47.412;9.730;2022-09-17T02:05:30;5.80;;;2.92;;
48317;SDS011;34127;47.412;9.730;2022-09-17T02:08:02;3.35;;;2.05;;
48317;SDS011;34127;47.412;9.730;2022-09-17T02:10:34;4.95;;;2.08;;
48317;SDS011;34127;47.412;9.730;2022-09-17T02:13:22;4.55;;;2.30;;
48317;SDS011;34127;47.412;9.730;2022-09-17T02:15:52;3.60;;;1.80;;
48317;SDS011;34127;47.412;9.730;2022-09-17T02:18:37;4.32;;;1.80;;
48317;SDS011;34127;47.412;9.730;2022-09-17T02:26:22;3.08;;;1.60;;
48317;SDS011;34127;47.412;9.730;2022-09-17T02:28:52;2.85;;;1.75;;
48317;SDS011;34127;47.412;9.730;2022-09-17T02:31:19;2.75;;;1.63;;
48317;SDS011;34127;47.412;9.730;2022-09-17T02:33:47;3.38;;;1.75;;
48317;SDS011;34127;47.412;9.730;2022-09-17T02:36:14;3.38;;;1.60;;
48317;SDS011;34127;47.412;9.730;2022-09-17T02:38:42;2.50;;;1.15;;
48317;SDS011;34127;47.412;9.730;2022-09-17T02:43:37;3.35;;;1.50;;
48317;SDS011;34127;47.412;9.730;2022-09-17T02:54:17;3.78;;;1.55;;
48317;SDS011;34127;47.412;9.730;2022-09-17T02:59:41;2.50;;;1.50;;
48317;SDS011;34127;47.412;9.730;2022-09-17T03:02:18;3.78;;;1.70;;
48317;SDS011;34127;47.412;9.730;2022-09-17T03:04:46;3.35;;;1.60;;
48317;SDS011;34127;47.412;9.730;2022-09-17T03:07:13;2.40;;;1.40;;
48317;SDS011;34127;47.412;9.730;2022-09-17T03:09:39;4.65;;;1.80;;
48317;SDS011;34127;47.412;9.730;2022-09-17T03:12:07;2.75;;;1.35;;
48317;SDS011;34127;47.412;9.730;2022-09-17T03:14:34;2.53;;;1.50;;
48317;SDS011;34127;47.412;9.730;2022-09-17T03:17:00;3.85;;;1.45;;
48317;SDS011;34127;47.412;9.730;2022-09-17T03:19:26;1.88;;;1.17;;
48317;SDS011;34127;47.412;9.730;2022-09-17T03:21:52;3.00;;;1.30;;
48317;SDS011;34127;47.412;9.730;2022-09-17T03:24:19;2.10;;;1.30;;
48317;SDS011;34127;47.412;9.730;2022-09-17T03:26:45;2.80;;;1.35;;
48317;SDS011;34127;47.412;9.730;2022-09-17T03:29:15;2.97;;;1.38;;
48317;SDS011;34127;47.412;9.730;2022-09-17T03:31:41;2.28;;;1.30;;
48317;SDS011;34127;47.412;9.730;2022-09-17T03:34:07;1.80;;;1.10;;
48317;SDS011;34127;47.412;9.730;2022-09-17T03:36:33;1.92;;;1.25;;
48317;SDS011;34127;47.412;9.730;2022-09-17T03:39:00;3.38;;;1.75;;
48317;SDS011;34127;47.412;9.730;2022-09-17T03:41:26;3.05;;;1.67;;
48317;SDS011;34127;47.412;9.730;2022-09-17T03:43:52;3.95;;;1.60;;
48317;SDS011;34127;47.412;9.730;2022-09-17T03:46:18;2.25;;;1.40;;
48317;SDS011;34127;47.412;9.730;2022-09-17T03:48:45;2.25;;;1.45;;
48317;SDS011;34127;47.412;9.730;2022-09-17T03:51:11;1.92;;;1.20;;
48317;SDS011;34127;47.412;9.730;2022-09-17T03:53:37;1.40;;;1.10;;
48317;SDS011;34127;47.412;9.730;2022-09-17T03:56:04;1.63;;;1.15;;
48317;SDS011;34127;47.412;9.730;2022-09-17T03:58:31;2.42;;;1.17;;
48317;SDS011;34127;47.412;9.730;2022-09-17T04:00:57;1.98;;;1.20;;
48317;SDS011;34127;47.412;9.730;2022-09-17T04:03:25;2.20;;;1.20;;
48317;SDS011;34127;47.412;9.730;2022-09-17T04:05:51;1.90;;;1.13;;
48317;SDS011;34127;47.412;9.730;2022-09-17T04:08:17;3.25;;;1.27;;
48317;SDS011;34127;47.412;9.730;2022-09-17T04:10:44;2.15;;;1.20;;
48317;SDS011;34127;47.412;9.730;2022-09-17T04:13:10;1.77;;;1.10;;
48317;SDS011;34127;47.412;9.730;2022-09-17T04:15:36;3.03;;;1.77;;
48317;SDS011;34127;47.412;9.730;2022-09-17T04:18:03;3.38;;;1.40;;
48317;SDS011;34127;47.412;9.730;2022-09-17T04:20:29;2.00;;;1.23;;
48317;SDS011;34127;47.412;9.730;2022-09-17T04:22:55;2.47;;;1.20;;
48317;SDS011;34127;47.412;9.730;2022-09-17T04:25:21;2.08;;;1.30;;
48317;SDS011;34127;47.412;9.730;2022-09-17T04:27:47;3.95;;;1.30;;
48317;SDS011;34127;47.412;9.730;2022-09-17T04:30:14;2.70;;;1.25;;
48317;SDS011;34127;47.412;9.730;2022-09-17T04:32:41;1.95;;;1.20;;
48317;SDS011;34127;47.412;9.730;2022-09-17T04:35:08;3.60;;;1.55;;
48317;SDS011;34127;47.412;9.730;2022-09-17T04:37:34;3.72;;;1.65;;
48317;SDS011;34127;47.412;9.730;2022-09-17T04:40:00;4.50;;;1.88;;
48317;SDS011;34127;47.412;9.730;2022-09-17T04:42:27;3.45;;;1.60;;
48317;SDS011;34127;47.412;9.730;2022-09-17T04:44:53;2.75;;;1.58;;
48317;SDS011;34127;47.412;9.730;2022-09-17T04:49:45;3.22;;;1.90;;
48317;SDS011;34127;47.412;9.730;2022-09-17T04:52:11;5.68;;;2.10;;
48317;SDS011;34127;47.412;9.730;2022-09-17T04:54:37;3.65;;;2.03;;
48317;SDS011;34127;47.412;9.730;2022-09-17T04:57:03;4.57;;;2.03;;
48317;SDS011;34127;47.412;9.730;2022-09-17T04:59:30;3.15;;;1.95;;
48317;SDS011;34127;47.412;9.730;2022-09-17T05:01:56;4.05;;;2.05;;
48317;SDS011;34127;47.412;9.730;2022-09-17T05:04:22;5.25;;;2.65;;
48317;SDS011;34127;47.412;9.730;2022-09-17T05:06:48;4.03;;;2.22;;
48317;SDS011;34127;47.412;9.730;2022-09-17T05:09:14;7.25;;;2.30;;
48317;SDS011;34127;47.412;9.730;2022-09-17T05:11:41;3.90;;;2.05;;
48317;SDS011;34127;47.412;9.730;2022-09-17T05:14:07;5.55;;;2.30;;
48317;SDS011;34127;47.412;9.730;2022-09-17T05:16:33;5.32;;;2.35;;
48317;SDS011;34127;47.412;9.730;2022-09-17T05:18:59;3.85;;;2.30;;
48317;SDS011;34127;47.412;9.730;2022-09-17T05:21:25;7.22;;;2.70;;
48317;SDS011;34127;47.412;9.730;2022-09-17T05:23:51;4.57;;;2.60;;
48317;SDS011;34127;47.412;9.730;2022-09-17T05:26:17;4.35;;;2.22;;
48317;SDS011;34127;47.412;9.730;2022-09-17T05:28:44;3.97;;;2.50;;
48317;SDS011;34127;47.412;9.730;2022-09-17T05:31:10;3.95;;;2.83;;
48317;SDS011;34127;47.412;9.730;2022-09-17T05:33:36;4.15;;;2.75;;
48317;SDS011;34127;47.412;9.730;2022-09-17T05:36:02;5.53;;;2.72;;
48317;SDS011;34127;47.412;9.730;2022-09-17T05:38:28;3.83;;;2.35;;
48317;SDS011;34127;47.412;9.730;2022-09-17T05:40:55;3.60;;;2.45;;
48317;SDS011;34127;47.412;9.730;2022-09-17T05:43:21;4.00;;;2.10;;
48317;SDS011;34127;47.412;9.730;2022-09-17T05:45:47;5.70;;;2.70;;
48317;SDS011;34127;47.412;9.730;2022-09-17T05:48:14;4.65;;;2.55;;
48317;SDS011;34127;47.412;9.730;2022-09-17T05:50:40;3.92;;;2.33;;
48317;SDS011;34127;47.412;9.730;2022-09-17T05:53:07;3.83;;;2.35;;
48317;SDS011;34127;47.412;9.730;2022-09-17T05:55:35;4.55;;;2.45;;
48317;SDS011;34127;47.412;9.730;2022-09-17T05:58:34;4.43;;;3.10;;
48317;SDS011;34127;47.412;9.730;2022-09-17T06:00:53;4.25;;;2.22;;
48317;SDS011;34127;47.412;9.730;2022-09-17T06:03:20;5.07;;;2.42;;
48317;SDS011;34127;47.412;9.730;2022-09-17T06:06:06;4.80;;;2.60;;
48317;SDS011;34127;47.412;9.730;2022-09-17T06:08:34;4.78;;;2.75;;
48317;SDS011;34127;47.412;9.730;2022-09-17T06:11:07;4.65;;;2.80;;
48317;SDS011;34127;47.412;9.730;2022-09-17T06:13:33;5.57;;;3.17;;
48317;SDS011;34127;47.412;9.730;2022-09-17T06:16:00;5.70;;;2.70;;
48317;SDS011;34127;47.412;9.730;2022-09-17T06:18:27;6.88;;;3.00;;
48317;SDS011;34127;47.412;9.730;2022-09-17T06:20:57;5.32;;;2.80;;
48317;SDS011;34127;47.412;9.730;2022-09-17T06:23:24;7.18;;;3.00;;
48317;SDS011;34127;47.412;9.730;2022-09-17T06:25:55;4.78;;;3.20;;
48317;SDS011;34127;47.412;9.730;2022-09-17T06:28:21;6.03;;;3.22;;
48317;SDS011;34127;47.412;9.730;2022-09-17T06:30:47;6.20;;;3.25;;
48317;SDS011;34127;47.412;9.730;2022-09-17T06:33:16;6.20;;;2.95;;
48317;SDS011;34127;47.412;9.730;2022-09-17T06:35:43;4.03;;;2.70;;
48317;SDS011;34127;47.412;9.730;2022-09-17T06:38:09;4.15;;;2.53;;
48317;SDS011;34127;47.412;9.730;2022-09-17T06:40:35;5.43;;;2.88;;
48317;SDS011;34127;47.412;9.730;2022-09-17T06:43:02;5.95;;;2.92;;
48317;SDS011;34127;47.412;9.730;2022-09-17T06:45:28;5.72;;;2.63;;
48317;SDS011;34127;47.412;9.730;2022-09-17T06:47:54;6.82;;;3.80;;
48317;SDS011;34127;47.412;9.730;2022-09-17T06:50:20;4.97;;;2.97;;
48317;SDS011;34127;47.412;9.730;2022-09-17T06:52:47;6.70;;;3.67;;
48317;SDS011;34127;47.412;9.730;2022-09-17T06:55:13;4.20;;;2.10;;
48317;SDS011;34127;47.412;9.730;2022-09-17T06:57:40;4.05;;;2.10;;
48317;SDS011;34127;47.412;9.730;2022-09-17T07:00:06;4.45;;;2.58;;
48317;SDS011;34127;47.412;9.730;2022-09-17T07:02:33;3.83;;;2.00;;
48317;SDS011;34127;47.412;9.730;2022-09-17T07:04:59;4.40;;;1.85;;
48317;SDS011;34127;47.412;9.730;2022-09-17T07:07:26;3.25;;;1.80;;
48317;SDS011;34127;47.412;9.730;2022-09-17T07:09:53;3.70;;;1.92;;
48317;SDS011;34127;47.412;9.730;2022-09-17T07:12:19;4.55;;;2.03;;
48317;SDS011;34127;47.412;9.730;2022-09-17T07:14:45;4.43;;;1.70;;
48317;SDS011;34127;47.412;9.730;2022-09-17T07:17:12;6.13;;;1.98;;
48317;SDS011;34127;47.412;9.730;2022-09-17T07:19:38;3.33;;;1.90;;
48317;SDS011;34127;47.412;9.730;2022-09-17T07:22:04;3.10;;;1.70;;
48317;SDS011;34127;47.412;9.730;2022-09-17T07:24:30;4.53;;;1.90;;
48317;SDS011;34127;47.412;9.730;2022-09-17T07:26:56;3.72;;;1.90;;
48317;SDS011;34127;47.412;9.730;2022-09-17T07:29:23;4.43;;;1.70;;
48317;SDS011;34127;47.412;9.730;2022-09-17T07:31:55;3.10;;;1.60;;
48317;SDS011;34127;47.412;9.730;2022-09-17T07:34:22;4.63;;;1.90;;
48317;SDS011;34127;47.412;9.730;2022-09-17T07:36:48;4.85;;;1.98;;
48317;SDS011;34127;47.412;9.730;2022-09-17T07:39:14;3.45;;;1.75;;
48317;SDS011;34127;47.412;9.730;2022-09-17T07:41:40;4.78;;;1.65;;
48317;SDS011;34127;47.412;9.730;2022-09-17T07:44:06;2.50;;;1.40;;
48317;SDS011;34127;47.412;9.730;2022-09-17T07:46:33;2.90;;;1.58;;
48317;SDS011;34127;47.412;9.730;2022-09-17T07:49:00;6.15;;;1.92;;
48317;SDS011;34127;47.412;9.730;2022-09-17T07:51:26;2.22;;;1.33;;
48317;SDS011;34127;47.412;9.730;2022-09-17T07:53:53;2.60;;;1.50;;
48317;SDS011;34127;47.412;9.730;2022-09-17T07:56:20;3.10;;;1.70;;
48317;SDS011;34127;47.412;9.730;2022-09-17T07:58:46;3.17;;;1.60;;
48317;SDS011;34127;47.412;9.730;2022-09-17T08:01:12;3.92;;;2.00;;
48317;SDS011;34127;47.412;9.730;2022-09-17T08:03:42;4.95;;;2.20;;
48317;SDS011;34127;47.412;9.730;2022-09-17T08:06:13;5.18;;;2.05;;
48317;SDS011;34127;47.412;9.730;2022-09-17T08:08:40;3.60;;;1.92;;
48317;SDS011;34127;47.412;9.730;2022-09-17T08:11:12;5.60;;;2.83;;
48317;SDS011;34127;47.412;9.730;2022-09-17T08:13:40;5.70;;;2.00;;
48317;SDS011;34127;47.412;9.730;2022-09-17T08:16:07;3.50;;;2.10;;
48317;SDS011;34127;47.412;9.730;2022-09-17T08:18:34;4.57;;;2.40;;
48317;SDS011;34127;47.412;9.730;2022-09-17T08:21:04;4.28;;;1.98;;
48317;SDS011;34127;47.412;9.730;2022-09-17T08:23:32;2.90;;;1.67;;
48317;SDS011;34127;47.412;9.730;2022-09-17T08:25:59;4.05;;;1.98;;
48317;SDS011;34127;47.412;9.730;2022-09-17T08:28:26;4.40;;;1.95;;
48317;SDS011;34127;47.412;9.730;2022-09-17T08:30:52;4.93;;;1.73;;
48317;SDS011;34127;47.412;9.730;2022-09-17T08:33:19;4.65;;;2.10;;
48317;SDS011;34127;47.412;9.730;2022-09-17T08:35:54;6.15;;;2.40;;
48317;SDS011;34127;47.412;9.730;2022-09-17T08:38:30;4.88;;;2.20;;
48317;SDS011;34127;47.412;9.730;2022-09-17T08:46:08;4.72;;;1.77;;
48317;SDS011;34127;47.412;9.730;2022-09-17T08:48:42;4.20;;;2.17;;
48317;SDS011;34127;47.412;9.730;2022-09-17T08:51:14;2.60;;;1.45;;
48317;SDS011;34127;47.412;9.730;2022-09-17T08:53:46;3.50;;;1.42;;
48317;SDS011;34127;47.412;9.730;2022-09-17T08:56:17;3.63;;;1.63;;
48317;SDS011;34127;47.412;9.730;2022-09-17T08:58:50;4.07;;;1.50;;
48317;SDS011;34127;47.412;9.730;2022-09-17T09:06:13;5.82;;;1.90;;
48317;SDS011;34127;47.412;9.730;2022-09-17T09:08:49;3.95;;;1.95;;
48317;SDS011;34127;47.412;9.730;2022-09-17T09:11:23;3.45;;;1.60;;
48317;SDS011;34127;47.412;9.730;2022-09-17T09:13:57;5.60;;;2.08;;
48317;SDS011;34127;47.412;9.730;2022-09-17T09:16:28;6.20;;;2.42;;
48317;SDS011;34127;47.412;9.730;2022-09-17T09:18:58;4.35;;;2.30;;
48317;SDS011;34127;47.412;9.730;2022-09-17T09:21:27;5.93;;;2.20;;
48317;SDS011;34127;47.412;9.730;2022-09-17T09:23:58;5.55;;;2.50;;
48317;SDS011;34127;47.412;9.730;2022-09-17T09:34:01;5.25;;;2.22;;
48317;SDS011;34127;47.412;9.730;2022-09-17T09:36:28;4.15;;;1.70;;
48317;SDS011;34127;47.412;9.730;2022-09-17T09:38:56;5.90;;;2.20;;
48317;SDS011;34127;47.412;9.730;2022-09-17T09:43:57;4.28;;;2.00;;
48317;SDS011;34127;47.412;9.730;2022-09-17T09:59:11;2.83;;;1.20;;
48317;SDS011;34127;47.412;9.730;2022-09-17T10:01:41;4.53;;;1.55;;
48317;SDS011;34127;47.412;9.730;2022-09-17T10:04:14;2.22;;;1.20;;
48317;SDS011;34127;47.412;9.730;2022-09-17T10:06:41;2.42;;;1.30;;
48317;SDS011;34127;47.412;9.730;2022-09-17T10:09:07;4.57;;;1.88;;
48317;SDS011;34127;47.412;9.730;2022-09-17T10:11:34;2.30;;;1.25;;
48317;SDS011;34127;47.412;9.730;2022-09-17T10:14:13;3.50;;;1.50;;
48317;SDS011;34127;47.412;9.730;2022-09-17T10:16:40;3.67;;;1.50;;
48317;SDS011;34127;47.412;9.730;2022-09-17T10:21:39;4.75;;;1.85;;
48317;SDS011;34127;47.412;9.730;2022-09-17T10:24:20;2.85;;;1.50;;
48317;SDS011;34127;47.412;9.730;2022-09-17T10:26:47;4.28;;;1.40;;
48317;SDS011;34127;47.412;9.730;2022-09-17T10:29:15;1.88;;;1.10;;
48317;SDS011;34127;47.412;9.730;2022-09-17T10:34:25;3.28;;;1.40;;
48317;SDS011;34127;47.412;9.730;2022-09-17T10:36:52;3.95;;;1.40;;
48317;SDS011;34127;47.412;9.730;2022-09-17T10:41:58;4.07;;;1.80;;
48317;SDS011;34127;47.412;9.730;2022-09-17T10:44:25;4.65;;;1.40;;
48317;SDS011;34127;47.412;9.730;2022-09-17T10:46:52;1.75;;;1.20;;
48317;SDS011;34127;47.412;9.730;2022-09-17T10:52:04;1.95;;;1.15;;
48317;SDS011;34127;47.412;9.730;2022-09-17T10:57:00;2.45;;;0.93;;
48317;SDS011;34127;47.412;9.730;2022-09-17T10:59:36;1.63;;;1.00;;
48317;SDS011;34127;47.412;9.730;2022-09-17T11:04:49;4.40;;;1.00;;
48317;SDS011;34127;47.412;9.730;2022-09-17T11:08:05;2.20;;;1.10;;
48317;SDS011;34127;47.412;9.730;2022-09-17T11:10:11;1.85;;;1.00;;
48317;SDS011;34127;47.412;9.730;2022-09-17T11:26:31;2.80;;;1.38;;
48317;SDS011;34127;47.412;9.730;2022-09-17T11:31:33;3.38;;;1.50;;
48317;SDS011;34127;47.412;9.730;2022-09-17T11:34:18;3.78;;;1.58;;
48317;SDS011;34127;47.412;9.730;2022-09-17T11:39:15;2.85;;;1.50;;
48317;SDS011;34127;47.412;9.730;2022-09-17T11:41:44;4.45;;;1.80;;
48317;SDS011;34127;47.412;9.730;2022-09-17T11:46:39;4.53;;;2.47;;
48317;SDS011;34127;47.412;9.730;2022-09-17T11:51:37;4.55;;;2.20;;
48317;SDS011;34127;47.412;9.730;2022-09-17T11:54:06;5.30;;;2.63;;
48317;SDS011;34127;47.412;9.730;2022-09-17T11:56:43;4.25;;;2.13;;
48317;SDS011;34127;47.412;9.730;2022-09-17T11:59:29;3.92;;;1.77;;
48317;SDS011;34127;47.412;9.730;2022-09-17T12:01:58;4.90;;;1.60;;
48317;SDS011;34127;47.412;9.730;2022-09-17T12:06:57;5.75;;;2.47;;
48317;SDS011;34127;47.412;9.730;2022-09-17T12:09:25;5.03;;;2.50;;
48317;SDS011;34127;47.412;9.730;2022-09-17T12:14:22;3.70;;;1.88;;
48317;SDS011;34127;47.412;9.730;2022-09-17T12:16:51;3.65;;;2.10;;
48317;SDS011;34127;47.412;9.730;2022-09-17T12:19:34;4.20;;;2.20;;
48317;SDS011;34127;47.412;9.730;2022-09-17T12:22:10;3.03;;;1.85;;
48317;SDS011;34127;47.412;9.730;2022-09-17T12:24:39;3.53;;;2.03;;
48317;SDS011;34127;47.412;9.730;2022-09-17T12:34:56;5.10;;;2.10;;
48317;SDS011;34127;47.412;9.730;2022-09-17T12:37:34;4.60;;;2.17;;
48317;SDS011;34127;47.412;9.730;2022-09-17T12:42:37;3.83;;;1.75;;
48317;SDS011;34127;47.412;9.730;2022-09-17T12:47:59;4.63;;;1.80;;
48317;SDS011;34127;47.412;9.730;2022-09-17T12:55:35;2.42;;;1.50;;
48317;SDS011;34127;47.412;9.730;2022-09-17T13:05:59;4.25;;;2.22;;
48317;SDS011;34127;47.412;9.730;2022-09-17T13:08:34;5.43;;;2.97;;
48317;SDS011;34127;47.412;9.730;2022-09-17T13:19:03;4.25;;;2.42;;
48317;SDS011;34127;47.412;9.730;2022-09-17T13:24:13;3.63;;;2.15;;
48317;SDS011;34127;47.412;9.730;2022-09-17T13:26:39;4.87;;;2.37;;
48317;SDS011;34127;47.412;9.730;2022-09-17T13:29:06;5.30;;;2.58;;
48317;SDS011;34127;47.412;9.730;2022-09-17T13:41:58;3.58;;;1.92;;
48317;SDS011;34127;47.412;9.730;2022-09-17T13:44:26;4.13;;;1.52;;
48317;SDS011;34127;47.412;9.730;2022-09-17T13:46:52;2.28;;;1.30;;
48317;SDS011;34127;47.412;9.730;2022-09-17T13:49:18;2.80;;;1.25;;
48317;SDS011;34127;47.412;9.730;2022-09-17T13:51:44;2.13;;;1.20;;
48317;SDS011;34127;47.412;9.730;2022-09-17T13:54:11;3.35;;;1.50;;
48317;SDS011;34127;47.412;9.730;2022-09-17T13:56:40;2.38;;;1.30;;
48317;SDS011;34127;47.412;9.730;2022-09-17T13:59:08;2.10;;;1.20;;
48317;SDS011;34127;47.412;9.730;2022-09-17T14:04:33;2.13;;;1.30;;
48317;SDS011;34127;47.412;9.730;2022-09-17T14:06:59;2.72;;;1.35;;
48317;SDS011;34127;47.412;9.730;2022-09-17T14:09:33;2.40;;;1.45;;
48317;SDS011;34127;47.412;9.730;2022-09-17T14:12:00;2.72;;;1.38;;
48317;SDS011;34127;47.412;9.730;2022-09-17T14:16:52;2.10;;;1.20;;
48317;SDS011;34127;47.412;9.730;2022-09-17T14:24:22;7.28;;;2.70;;
48317;SDS011;34127;47.412;9.730;2022-09-17T14:31:43;4.97;;;2.38;;
48317;SDS011;34127;47.412;9.730;2022-09-17T14:34:15;4.47;;;2.17;;
48317;SDS011;34127;47.412;9.730;2022-09-17T14:36:43;5.38;;;2.50;;
48317;SDS011;34127;47.412;9.730;2022-09-17T14:39:12;4.97;;;2.95;;
48317;SDS011;34127;47.412;9.730;2022-09-17T14:41:41;4.30;;;2.30;;
48317;SDS011;34127;47.412;9.730;2022-09-17T14:46:40;15.02;;;5.90;;
48317;SDS011;34127;47.412;9.730;2022-09-17T14:49:14;34.05;;;12.93;;
48317;SDS011;34127;47.412;9.730;2022-09-17T14:51:41;9.18;;;4.05;;
48317;SDS011;34127;47.412;9.730;2022-09-17T14:54:10;5.40;;;2.60;;
48317;SDS011;34127;47.412;9.730;2022-09-17T14:59:15;3.15;;;1.73;;
48317;SDS011;34127;47.412;9.730;2022-09-17T15:01:44;4.13;;;2.15;;
48317;SDS011;34127;47.412;9.730;2022-09-17T15:06:42;4.97;;;2.20;;
48317;SDS011;34127;47.412;9.730;2022-09-17T15:09:15;4.93;;;2.50;;
48317;SDS011;34127;47.412;9.730;2022-09-17T15:11:41;3.97;;;2.00;;
48317;SDS011;34127;47.412;9.730;2022-09-17T15:14:16;3.63;;;1.92;;
48317;SDS011;34127;47.412;9.730;2022-09-17T15:16:47;5.80;;;1.92;;
48317;SDS011;34127;47.412;9.730;2022-09-17T15:19:14;2.85;;;1.67;;
48317;SDS011;34127;47.412;9.730;2022-09-17T15:21:44;2.70;;;1.60;;
48317;SDS011;34127;47.412;9.730;2022-09-17T15:26:42;3.42;;;1.60;;
48317;SDS011;34127;47.412;9.730;2022-09-17T15:29:10;3.40;;;1.90;;
48317;SDS011;34127;47.412;9.730;2022-09-17T15:31:37;4.07;;;1.95;;
48317;SDS011;34127;47.412;9.730;2022-09-17T15:34:03;3.80;;;2.08;;
48317;SDS011;34127;47.412;9.730;2022-09-17T15:36:29;3.72;;;2.00;;
48317;SDS011;34127;47.412;9.730;2022-09-17T15:38:56;3.92;;;2.20;;
48317;SDS011;34127;47.412;9.730;2022-09-17T15:41:33;3.08;;;1.67;;
48317;SDS011;34127;47.412;9.730;2022-09-17T15:46:26;2.40;;;1.40;;
48317;SDS011;34127;47.412;9.730;2022-09-17T15:49:02;3.42;;;1.40;;
48317;SDS011;34127;47.412;9.730;2022-09-17T15:51:30;2.20;;;1.38;;
48317;SDS011;34127;47.412;9.730;2022-09-17T15:54:00;3.40;;;1.38;;
48317;SDS011;34127;47.412;9.730;2022-09-17T15:56:38;2.92;;;1.38;;
48317;SDS011;34127;47.412;9.730;2022-09-17T15:59:19;2.47;;;1.30;;
48317;SDS011;34127;47.412;9.730;2022-09-17T16:12:00;3.35;;;1.67;;
48317;SDS011;34127;47.412;9.730;2022-09-17T16:14:26;3.22;;;1.80;;
48317;SDS011;34127;47.412;9.730;2022-09-17T16:16:52;6.63;;;2.20;;
48317;SDS011;34127;47.412;9.730;2022-09-17T16:19:20;5.47;;;1.95;;
48317;SDS011;34127;47.412;9.730;2022-09-17T16:21:46;4.38;;;1.92;;
48317;SDS011;34127;47.412;9.730;2022-09-17T16:24:12;3.15;;;1.80;;
48317;SDS011;34127;47.412;9.730;2022-09-17T16:26:38;4.10;;;1.98;;
48317;SDS011;34127;47.412;9.730;2022-09-17T16:29:06;4.93;;;2.13;;
48317;SDS011;34127;47.412;9.730;2022-09-17T16:31:37;4.75;;;1.92;;
48317;SDS011;34127;47.412;9.730;2022-09-17T16:34:04;2.88;;;1.55;;
48317;SDS011;34127;47.412;9.730;2022-09-17T16:36:30;3.80;;;1.85;;
48317;SDS011;34127;47.412;9.730;2022-09-17T16:38:56;3.05;;;1.52;;
48317;SDS011;34127;47.412;9.730;2022-09-17T16:41:23;4.18;;;1.30;;
48317;SDS011;34127;47.412;9.730;2022-09-17T16:43:50;3.08;;;1.30;;
48317;SDS011;34127;47.412;9.730;2022-09-17T16:46:16;2.55;;;1.20;;
48317;SDS011;34127;47.412;9.730;2022-09-17T16:48:43;3.30;;;1.52;;
48317;SDS011;34127;47.412;9.730;2022-09-17T16:51:11;4.90;;;1.42;;
48317;SDS011;34127;47.412;9.730;2022-09-17T16:53:37;3.83;;;1.55;;
48317;SDS011;34127;47.412;9.730;2022-09-17T16:56:07;2.50;;;1.33;;
48317;SDS011;34127;47.412;9.730;2022-09-17T16:58:34;2.92;;;1.50;;
48317;SDS011;34127;47.412;9.730;2022-09-17T17:01:09;2.33;;;1.27;;
48317;SDS011;34127;47.412;9.730;2022-09-17T17:03:36;3.50;;;1.70;;
48317;SDS011;34127;47.412;9.730;2022-09-17T17:06:02;3.55;;;1.67;;
48317;SDS011;34127;47.412;9.730;2022-09-17T17:08:32;2.30;;;1.20;;
48317;SDS011;34127;47.412;9.730;2022-09-17T17:10:58;2.50;;;1.40;;
48317;SDS011;34127;47.412;9.730;2022-09-17T17:13:25;3.22;;;1.30;;
48317;SDS011;34127;47.412;9.730;2022-09-17T17:15:52;2.70;;;1.30;;
48317;SDS011;34127;47.412;9.730;2022-09-17T17:18:19;2.55;;;1.30;;
48317;SDS011;34127;47.412;9.730;2022-09-17T17:20:45;2.47;;;1.42;;
48317;SDS011;34127;47.412;9.730;2022-09-17T17:23:12;1.95;;;1.20;;
48317;SDS011;34127;47.412;9.730;2022-09-17T17:25:38;2.17;;;1.30;;
48317;SDS011;34127;47.412;9.730;2022-09-17T17:28:05;3.35;;;1.60;;
48317;SDS011;34127;47.412;9.730;2022-09-17T17:30:31;5.07;;;2.03;;
48317;SDS011;34127;47.412;9.730;2022-09-17T17:32:57;2.42;;;1.50;;
48317;SDS011;34127;47.412;9.730;2022-09-17T17:35:28;3.50;;;1.40;;
48317;SDS011;34127;47.412;9.730;2022-09-17T17:37:54;3.25;;;1.40;;
48317;SDS011;34127;47.412;9.730;2022-09-17T17:40:20;3.88;;;1.63;;
48317;SDS011;34127;47.412;9.730;2022-09-17T17:42:50;5.20;;;2.00;;
48317;SDS011;34127;47.412;9.730;2022-09-17T17:45:16;3.20;;;1.70;;
48317;SDS011;34127;47.412;9.730;2022-09-17T17:47:42;2.50;;;1.50;;
48317;SDS011;34127;47.412;9.730;2022-09-17T17:50:08;4.05;;;1.70;;
48317;SDS011;34127;47.412;9.730;2022-09-17T17:52:34;4.15;;;1.70;;
48317;SDS011;34127;47.412;9.730;2022-09-17T17:55:03;4.03;;;1.55;;
48317;SDS011;34127;47.412;9.730;2022-09-17T17:57:29;2.60;;;1.42;;
48317;SDS011;34127;47.412;9.730;2022-09-17T17:59:55;4.10;;;1.50;;
48317;SDS011;34127;47.412;9.730;2022-09-17T18:02:22;3.85;;;1.50;;
48317;SDS011;34127;47.412;9.730;2022-09-17T18:04:48;4.07;;;1.75;;
48317;SDS011;34127;47.412;9.730;2022-09-17T18:07:14;3.72;;;1.90;;
48317;SDS011;34127;47.412;9.730;2022-09-17T18:09:40;3.88;;;1.92;;
48317;SDS011;34127;47.412;9.730;2022-09-17T18:12:07;4.50;;;2.45;;
48317;SDS011;34127;47.412;9.730;2022-09-17T18:14:33;3.47;;;2.20;;
48317;SDS011;34127;47.412;9.730;2022-09-17T18:16:59;3.42;;;1.77;;
48317;SDS011;34127;47.412;9.730;2022-09-17T18:19:25;2.88;;;1.70;;
48317;SDS011;34127;47.412;9.730;2022-09-17T18:21:52;4.22;;;1.90;;